Time;durP1;ratioP1;P1;durP2;ratioP2;P2;SDS_P1;SDS_P2;PMS_P1;PMS_P2;Temp;Humidity;BMP_temperature;BMP_pressure;BME280_temperature;BME280_humidity;BME280_pressure;Samples;Min_cycle;Max_cycle;Signal;HPM_P1;HPM_P2
2023/04/07 00:00:52;;;;;;;9.75;5.90;;;;;;;8.81;87.55;99640.06;5067831;28;20136;-79
2023/04/07 00:03:17;;;;;;;10.75;5.82;;;;;;;8.91;86.83;99647.50;5067456;28;20028;-78
2023/04/07 00:05:42;;;;;;;9.80;5.53;;;;;;;8.78;87.01;99642.50;5067249;28;20074;-80
2023/04/07 00:08:08;;;;;;;14.57;6.82;;;;;;;8.51;87.65;99639.47;5067503;28;20509;-80
2023/04/07 00:10:33;;;;;;;10.05;5.65;;;;;;;8.57;88.25;99637.66;5066793;28;20505;-81
2023/04/07 00:12:59;;;;;;;15.60;9.18;;;;;;;8.63;88.09;99635.81;5067412;28;20086;-79
2023/04/07 00:15:25;;;;;;;9.30;5.05;;;;;;;8.66;88.56;99631.75;5066873;28;20036;-79
2023/04/07 00:17:50;;;;;;;13.20;7.25;;;;;;;8.68;87.83;99635.06;5067284;28;20319;-79
2023/04/07 00:20:16;;;;;;;11.20;6.18;;;;;;;8.74;87.89;99634.03;5067332;28;20035;-79
2023/04/07 00:22:41;;;;;;;12.05;6.13;;;;;;;8.78;87.29;99632.44;5066809;28;20032;-79
2023/04/07 00:25:07;;;;;;;12.77;7.55;;;;;;;8.95;86.56;99634.25;5067028;28;20059;-79
2023/04/07 00:27:32;;;;;;;10.98;6.55;;;;;;;9.01;85.84;99630.47;5066839;28;20039;-80
2023/04/07 00:29:57;;;;;;;11.57;6.22;;;;;;;8.73;86.51;99630.47;5064194;28;20968;-79
2023/04/07 00:32:23;;;;;;;12.80;6.45;;;;;;;8.77;87.22;99635.44;5063408;28;20114;-79
2023/04/07 00:34:48;;;;;;;9.02;4.82;;;;;;;8.84;86.91;99627.88;5063660;28;20433;-79
2023/04/07 00:37:13;;;;;;;12.27;6.13;;;;;;;8.89;87.20;99632.56;5063573;28;20036;-81
2023/04/07 00:39:38;;;;;;;11.43;6.57;;;;;;;8.91;86.84;99630.41;5063322;28;20607;-79
2023/04/07 00:42:06;;;;;;;20.85;7.05;;;;;;;8.98;86.34;99623.66;5063799;28;20270;-80
2023/04/07 00:44:32;;;;;;;16.77;7.70;;;;;;;8.99;86.02;99629.91;5063091;28;20043;-79
2023/04/07 00:46:57;;;;;;;12.02;6.97;;;;;;;9.02;86.05;99631.28;5063757;28;20496;-79
2023/04/07 00:49:23;;;;;;;12.32;6.22;;;;;;;8.94;86.82;99625.25;5063233;28;20058;-79
2023/04/07 00:51:48;;;;;;;11.05;6.82;;;;;;;8.96;86.63;99622.28;5063512;28;20016;-79
2023/04/07 00:54:14;;;;;;;13.38;7.90;;;;;;;8.89;86.92;99627.91;5062680;28;20071;-79
2023/04/07 00:56:39;;;;;;;11.15;7.13;;;;;;;8.93;86.91;99620.88;5063241;28;20389;-79
2023/04/07 00:59:04;;;;;;;13.30;6.40;;;;;;;8.89;87.13;99619.75;5063464;28;20029;-79
2023/04/07 01:01:38;;;;;;;12.02;5.80;;;;;;;8.91;87.22;99619.53;5063387;28;20131;-79
2023/04/07 01:04:12;;;;;;;10.57;5.80;;;;;;;8.99;86.56;99617.13;5062970;28;20029;-79
2023/04/07 01:06:39;;;;;;;;;;;;;;;8.94;86.44;99613.56;5063645;28;20114;-78
2023/04/07 01:09:15;;;;;;;12.00;5.88;;;;;;;8.99;86.43;99610.88;5062947;28;20380;-78
2023/04/07 01:11:47;;;;;;;12.70;5.72;;;;;;;9.08;86.53;99612.06;5063355;28;20085;-80
2023/04/07 01:14:16;;;;;;;12.73;6.30;;;;;;;9.16;85.96;99597.16;5062778;28;20033;-79
2023/04/07 01:16:47;;;;;;;11.05;7.03;;;;;;;9.31;84.86;99607.34;5063369;28;20028;-79
2023/04/07 01:19:57;;;;;;;11.30;6.05;;;;;;;9.17;85.03;99615.09;5062816;28;20059;-80
2023/04/07 01:22:27;;;;;;;18.23;9.23;;;;;;;9.23;85.43;99605.91;5039128;28;20123;-79
2023/04/07 01:25:12;;;;;;;12.80;6.38;;;;;;;9.32;84.98;99602.72;5044246;28;20279;-80
2023/04/07 01:27:59;;;;;;;13.10;6.47;;;;;;;9.22;85.27;99607.00;5062485;28;20111;-79
2023/04/07 01:30:30;;;;;;;11.73;6.57;;;;;;;9.22;85.30;99598.84;5062709;28;20033;-79
2023/04/07 01:32:58;;;;;;;12.10;6.40;;;;;;;9.10;86.01;99607.19;5063035;28;20024;-78
2023/04/07 01:35:26;;;;;;;12.32;7.10;;;;;;;9.03;86.60;99603.84;5062148;28;20032;-79
2023/04/07 01:37:52;;;;;;;11.10;6.85;;;;;;;8.86;87.37;99607.53;5062343;28;20718;-79
2023/04/07 01:40:20;;;;;;;13.57;7.55;;;;;;;8.90;87.34;99609.72;5062035;28;20055;-79
2023/04/07 01:42:47;;;;;;;10.95;5.95;;;;;;;9.01;86.74;99603.28;5061549;28;20025;-79
2023/04/07 01:45:15;;;;;;;11.32;6.25;;;;;;;9.06;86.27;99600.63;5062333;28;20041;-79
2023/04/07 01:47:41;;;;;;;9.52;6.38;;;;;;;9.20;85.77;99598.28;5061983;28;20093;-79
2023/04/07 01:50:08;;;;;;;14.10;8.05;;;;;;;9.26;85.11;99609.19;5062558;28;20032;-78
2023/04/07 01:52:35;;;;;;;16.20;7.80;;;;;;;9.18;85.78;99597.72;5062136;28;21219;-78
2023/04/07 01:55:00;;;;;;;10.65;6.75;;;;;;;9.31;85.18;99596.47;5062341;28;20028;-79
2023/04/07 01:57:26;;;;;;;16.05;8.98;;;;;;;9.35;84.83;99602.22;5062090;28;20486;-79
2023/04/07 01:59:52;;;;;;;11.77;7.03;;;;;;;9.45;84.11;99596.84;5062594;28;20060;-79
2023/04/07 02:02:17;;;;;;;12.32;7.25;;;;;;;9.42;84.57;99597.34;5061996;28;20043;-79
2023/04/07 02:04:55;;;;;;;11.85;7.53;;;;;;;9.28;85.21;99596.16;5061643;28;20532;-79
2023/04/07 02:07:29;;;;;;;13.30;6.10;;;;;;;9.28;85.23;99596.16;5062292;28;20067;-79
2023/04/07 02:09:57;;;;;;;10.95;5.50;;;;;;;9.22;85.68;99598.84;5062435;28;20068;-80
2023/04/07 02:12:26;;;;;;;12.60;7.70;;;;;;;9.31;85.22;99598.38;5061939;28;20024;-79
2023/04/07 02:14:53;;;;;;;11.00;5.88;;;;;;;9.22;85.52;99593.41;5061774;28;20542;-78
2023/04/07 02:17:18;;;;;;;19.92;7.43;;;;;;;9.30;85.34;99594.00;5061540;28;20070;-79
2023/04/07 02:19:45;;;;;;;12.20;6.70;;;;;;;9.42;84.39;99591.09;5062291;28;20032;-79
2023/04/07 02:22:12;;;;;;;12.18;6.20;;;;;;;9.45;84.39;99596.84;5061867;28;20174;-78
2023/04/07 02:24:41;;;;;;;12.30;7.07;;;;;;;9.43;84.35;99601.72;5061545;28;20029;-79
2023/04/07 02:27:06;;;;;;;9.68;5.47;;;;;;;9.18;85.54;99597.72;5061869;28;20031;-79
2023/04/07 02:29:32;;;;;;;9.13;5.32;;;;;;;8.98;86.71;99595.66;5061560;28;20040;-79
2023/04/07 02:31:57;;;;;;;12.90;7.20;;;;;;;9.05;86.99;99592.72;5061838;28;20067;-79
2023/04/07 02:34:22;;;;;;;12.33;7.03;;;;;;;9.15;86.29;99595.53;5060870;28;20811;-79
2023/04/07 02:36:47;;;;;;;11.67;6.13;;;;;;;9.11;86.54;99588.97;5061630;28;20295;-79
2023/04/07 02:39:13;;;;;;;9.80;4.83;;;;;;;9.06;87.02;99597.06;5061249;28;20365;-79
2023/04/07 02:41:38;;;;;;;9.47;5.57;;;;;;;9.01;87.27;99591.59;5061542;28;20257;-78
2023/04/07 02:44:03;;;;;;;11.35;6.53;;;;;;;9.13;86.80;99599.59;5061998;28;20265;-79
2023/04/07 02:46:29;;;;;;;11.65;6.28;;;;;;;9.17;86.58;99596.06;5062129;28;20398;-79
2023/04/07 02:48:54;;;;;;;12.57;7.38;;;;;;;9.20;86.55;99598.28;5062976;28;20583;-80
2023/04/07 02:51:19;;;;;;;12.57;7.40;;;;;;;9.24;86.13;99598.59;5060669;28;20393;-80
2023/04/07 02:53:45;;;;;;;12.25;6.53;;;;;;;9.19;86.73;99590.41;5060627;28;20051;-80
2023/04/07 02:56:10;;;;;;;14.07;7.40;;;;;;;9.26;86.32;99592.88;5061239;28;20032;-79
2023/04/07 02:58:35;;;;;;;10.70;6.03;;;;;;;9.29;86.07;99592.38;5061098;28;20351;-79
2023/04/07 03:01:01;;;;;;;13.10;5.38;;;;;;;9.33;85.87;99599.75;5062586;28;20033;-83
2023/04/07 03:03:26;;;;;;;11.38;6.60;;;;;;;9.42;85.61;99596.53;5061130;28;20034;-82
2023/04/07 03:05:51;;;;;;;12.27;6.60;;;;;;;9.41;85.37;99593.00;5060863;28;20040;-82
2023/04/07 03:08:16;;;;;;;11.63;6.80;;;;;;;9.46;85.45;99594.94;5061758;28;20336;-82
2023/04/07 03:10:42;;;;;;;15.17;7.70;;;;;;;9.51;85.30;99592.25;5061323;28;20276;-82
2023/04/07 03:13:08;;;;;;;13.30;7.18;;;;;;;9.55;84.71;99589.81;5062025;28;20257;-82
2023/04/07 03:15:33;;;;;;;14.75;7.93;;;;;;;9.49;84.94;99590.88;5060994;28;20090;-82
2023/04/07 03:17:58;;;;;;;16.20;9.05;;;;;;;9.53;84.63;99598.25;5061288;28;20112;-83
2023/04/07 03:20:24;;;;;;;16.73;7.17;;;;;;;9.53;84.94;99591.97;5061930;28;20060;-83
2023/04/07 03:22:49;;;;;;;18.53;10.03;;;;;;;9.55;85.24;99598.00;5061695;28;20803;-83
2023/04/07 03:25:14;;;;;;;18.00;9.00;;;;;;;9.43;85.78;99592.75;5061862;28;20265;-83
2023/04/07 03:27:39;;;;;;;14.45;9.20;;;;;;;9.53;85.32;99598.25;5061653;28;20292;-83
2023/04/07 03:30:05;;;;;;;15.55;9.88;;;;;;;9.55;85.18;99590.66;5044419;28;20020;-83
2023/04/07 03:32:31;;;;;;;17.33;8.57;;;;;;;9.44;86.05;99594.38;5061348;28;20123;-84
2023/04/07 03:34:56;;;;;;;17.23;8.57;;;;;;;9.41;86.18;99595.72;5062013;28;20032;-83
2023/04/07 03:37:21;;;;;;;12.83;7.20;;;;;;;9.54;85.44;99597.16;5061435;28;21452;-81
2023/04/07 03:39:46;;;;;;;23.15;10.63;;;;;;;9.49;85.98;99596.31;5061971;28;20273;-84
2023/04/07 03:42:12;;;;;;;17.17;10.10;;;;;;;9.50;86.10;99592.53;5061933;28;20172;-84
2023/04/07 03:44:37;;;;;;;16.42;8.35;;;;;;;9.39;86.87;99588.91;5061886;28;20261;-83
2023/04/07 03:47:02;;;;;;;18.60;9.77;;;;;;;9.28;87.39;99590.72;5061961;28;20545;-81
2023/04/07 03:49:29;;;;;;;16.30;9.40;;;;;;;9.27;88.18;99597.25;5062067;28;20115;-83
2023/04/07 03:51:54;;;;;;;16.95;9.50;;;;;;;9.23;88.04;99600.47;5062258;28;20264;-83
2023/04/07 03:54:19;;;;;;;14.15;7.97;;;;;;;9.31;87.68;99601.09;5061497;28;20059;-82
2023/04/07 03:56:45;;;;;;;18.92;10.02;;;;;;;9.35;87.40;99604.94;5061957;28;20087;-83
2023/04/07 03:59:10;;;;;;;17.80;9.85;;;;;;;9.19;88.57;99599.34;5061868;28;20127;-83
2023/04/07 04:01:35;;;;;;;14.75;8.60;;;;;;;9.25;88.63;99604.84;5043853;28;20101;-83
2023/04/07 04:04:01;;;;;;;23.92;12.85;;;;;;;9.16;89.11;99599.88;5062010;28;20036;-83
2023/04/07 04:06:27;;;;;;;16.50;8.60;;;;;;;9.31;88.61;99601.91;5065352;28;20028;-82
2023/04/07 04:08:52;;;;;;;15.18;9.23;;;;;;;9.28;88.91;99607.03;5065185;28;20039;-83
2023/04/07 04:11:17;;;;;;;18.03;8.83;;;;;;;9.23;89.34;99600.47;5065188;28;20066;-82
2023/04/07 04:13:42;;;;;;;17.70;9.90;;;;;;;9.27;89.26;99605.41;5064952;28;20295;-83
2023/04/07 04:16:08;;;;;;;16.90;8.53;;;;;;;9.30;89.06;99605.69;5064648;28;20777;-83
2023/04/07 04:18:33;;;;;;;16.58;8.57;;;;;;;9.31;89.08;99611.97;5065103;28;20253;-82
2023/04/07 04:20:58;;;;;;;17.20;9.95;;;;;;;9.32;88.85;99605.44;5065010;28;20029;-82
2023/04/07 04:23:24;;;;;;;19.27;10.33;;;;;;;9.48;87.97;99613.72;5064848;28;20028;-82
2023/04/07 04:25:49;;;;;;;21.73;11.40;;;;;;;9.51;87.92;99611.31;5064112;28;20262;-83
2023/04/07 04:28:14;;;;;;;20.27;11.20;;;;;;;9.55;87.58;99611.59;5064163;28;20035;-83
2023/04/07 04:30:40;;;;;;;20.73;12.07;;;;;;;9.59;87.60;99612.72;5064063;28;20258;-82
2023/04/07 04:33:06;;;;;;;26.50;13.50;;;;;;;9.60;87.41;99619.78;5064467;28;20256;-83
2023/04/07 04:35:31;;;;;;;25.90;12.73;;;;;;;9.58;87.37;99611.88;5063649;28;20090;-81
2023/04/07 04:37:56;;;;;;;29.17;14.43;;;;;;;9.60;87.78;99619.78;5064333;28;20047;-83
2023/04/07 04:40:21;;;;;;;26.37;12.47;;;;;;;9.55;87.46;99625.22;5064319;28;20475;-82
2023/04/07 04:42:47;;;;;;;23.77;12.33;;;;;;;9.58;87.36;99624.66;5064572;28;20561;-82
2023/04/07 04:45:12;;;;;;;20.10;10.30;;;;;;;9.59;87.36;99629.03;5064113;28;20838;-83
2023/04/07 04:47:37;;;;;;;23.52;12.60;;;;;;;9.62;87.33;99628.50;5063881;28;20289;-83
2023/04/07 04:50:04;;;;;;;26.88;12.30;;;;;;;9.62;87.14;99623.06;5064880;28;20036;-82
2023/04/07 04:52:30;;;;;;;27.45;15.10;;;;;;;9.63;86.82;99635.59;5064149;28;20029;-83
2023/04/07 04:54:55;;;;;;;21.85;12.25;;;;;;;9.60;87.67;99625.22;5064066;28;20033;-83
2023/04/07 04:57:20;;;;;;;20.67;11.00;;;;;;;9.52;87.81;99633.91;5064141;28;20040;-83
2023/04/07 04:59:46;;;;;;;25.63;11.20;;;;;;;9.41;88.15;99635.72;5063912;28;20109;-82
2023/04/07 05:02:11;;;;;;;24.83;11.67;;;;;;;9.38;89.08;99638.94;5063831;28;20261;-82
2023/04/07 05:04:36;;;;;;;21.17;10.03;;;;;;;9.51;88.48;99632.25;5063499;28;20253;-83
2023/04/07 05:07:02;;;;;;;22.60;12.33;;;;;;;9.57;88.32;99639.38;5064304;28;20277;-83
2023/04/07 05:09:27;;;;;;;21.67;11.32;;;;;;;9.53;88.01;99640.97;5063195;28;20791;-82
2023/04/07 05:11:52;;;;;;;23.02;10.10;;;;;;;9.57;87.72;99637.47;5064242;28;20556;-82
2023/04/07 05:14:17;;;;;;;20.10;11.17;;;;;;;9.40;88.73;99645.78;5063641;28;21385;-83
2023/04/07 05:16:43;;;;;;;21.63;10.47;;;;;;;9.49;88.28;99645.28;5063494;28;20282;-82
2023/04/07 05:19:08;;;;;;;18.60;8.27;;;;;;;9.41;88.92;99646.59;5063432;28;20330;-83
2023/04/07 05:21:33;;;;;;;18.83;9.53;;;;;;;9.36;88.92;99652.00;5062629;28;20122;-83
2023/04/07 05:23:58;;;;;;;15.97;8.60;;;;;;;9.47;89.12;99659.16;5063458;28;20996;-83
2023/04/07 05:26:24;;;;;;;20.25;10.85;;;;;;;9.55;88.22;99655.16;5063264;28;20327;-82
2023/04/07 05:28:50;;;;;;;18.25;10.15;;;;;;;9.60;87.33;99652.44;5063717;28;20477;-82
2023/04/07 05:31:15;;;;;;;18.13;7.85;;;;;;;9.64;87.61;99655.50;5063278;28;20124;-82
2023/04/07 05:33:41;;;;;;;17.10;8.37;;;;;;;9.62;87.40;99650.28;5063211;28;20033;-83
2023/04/07 05:36:06;;;;;;;17.35;8.10;;;;;;;9.49;88.01;99664.34;5063277;28;20364;-83
2023/04/07 05:38:32;;;;;;;17.48;9.02;;;;;;;9.52;88.02;99672.00;5063936;28;20694;-84
2023/04/07 05:40:57;;;;;;;20.00;9.30;;;;;;;9.59;87.66;99667.16;5063890;28;20024;-84
2023/04/07 05:43:22;;;;;;;16.17;8.80;;;;;;;9.50;87.97;99672.25;5064511;28;20029;-85
2023/04/07 05:45:47;;;;;;;18.53;8.70;;;;;;;9.38;88.54;99677.88;5063078;28;20350;-85
2023/04/07 05:48:13;;;;;;;16.80;8.53;;;;;;;9.52;88.15;99675.53;5063463;28;20272;-84
2023/04/07 05:50:38;;;;;;;22.07;9.90;;;;;;;9.49;87.81;99681.50;5063467;28;20253;-84
2023/04/07 05:53:03;;;;;;;19.47;8.33;;;;;;;9.56;87.73;99673.09;5063668;28;20301;-83
2023/04/07 05:55:28;;;;;;;18.52;9.85;;;;;;;9.55;88.01;99682.34;5061735;28;20746;-84
2023/04/07 05:57:54;;;;;;;17.27;8.70;;;;;;;9.51;88.24;99670.34;5059801;28;20374;-82
2023/04/07 06:00:19;;;;;;;17.05;8.70;;;;;;;9.57;87.38;99677.47;5062775;28;20360;-83
2023/04/07 06:02:45;;;;;;;15.25;8.57;;;;;;;9.62;87.50;99677.50;5062732;28;23100;-84
2023/04/07 06:05:10;;;;;;;16.92;8.25;;;;;;;9.54;87.62;99686.19;5061860;28;20044;-84
2023/04/07 06:07:35;;;;;;;15.15;7.63;;;;;;;9.60;87.30;99690.56;5062531;28;20166;-84
2023/04/07 06:10:01;;;;;;;14.50;8.45;;;;;;;9.62;87.72;99693.03;5062794;28;20040;-83
2023/04/07 06:12:26;;;;;;;17.07;8.37;;;;;;;9.67;87.40;99701.22;5062186;28;20036;-78
2023/04/07 06:14:52;;;;;;;16.80;9.10;;;;;;;9.64;87.11;99696.31;5062254;28;20285;-80
2023/04/07 06:17:18;;;;;;;19.75;9.18;;;;;;;9.69;87.22;99704.50;5062196;28;20368;-81
2023/04/07 06:19:44;;;;;;;14.32;7.72;;;;;;;9.57;87.71;99693.81;5062553;28;20135;-79
2023/04/07 06:22:09;;;;;;;15.02;7.88;;;;;;;9.72;86.84;99697.75;5062766;28;20520;-81
2023/04/07 06:24:34;;;;;;;15.55;8.73;;;;;;;9.82;86.82;99703.25;5061936;28;20137;-80
2023/04/07 06:27:00;;;;;;;16.55;9.02;;;;;;;9.79;86.57;99692.88;5062041;28;20474;-80
2023/04/07 06:29:26;;;;;;;15.40;8.60;;;;;;;9.71;86.92;99704.25;5061974;28;20056;-81
2023/04/07 06:31:51;;;;;;;15.90;7.72;;;;;;;9.79;86.95;99706.50;5062396;28;20025;-81
2023/04/07 06:34:17;;;;;;;19.50;8.38;;;;;;;9.91;86.38;99707.13;5062113;28;20078;-81
2023/04/07 06:36:42;;;;;;;15.17;8.07;;;;;;;9.78;86.97;99713.84;5062049;28;20035;-80
2023/04/07 06:39:07;;;;;;;14.13;6.28;;;;;;;9.72;87.16;99716.78;5061717;28;20273;-80
2023/04/07 06:41:33;;;;;;;13.35;6.75;;;;;;;9.67;87.54;99710.22;5062338;28;20037;-79
2023/04/07 06:43:58;;;;;;;13.07;6.23;;;;;;;9.76;86.69;99715.19;5060887;28;20051;-80
2023/04/07 06:46:25;;;;;;;14.88;7.35;;;;;;;9.84;86.22;99717.44;5062150;28;20310;-83
2023/04/07 06:48:50;;;;;;;13.63;6.90;;;;;;;9.83;86.28;99726.66;5061961;28;20048;-82
2023/04/07 06:51:16;;;;;;;15.37;7.07;;;;;;;9.77;86.33;99719.53;5062448;28;20024;-82
2023/04/07 06:53:43;;;;;;;14.23;6.95;;;;;;;9.68;87.23;99725.47;5043841;28;20284;-83
2023/04/07 06:56:10;;;;;;;13.05;6.65;;;;;;;9.75;87.02;99719.81;5059548;28;20033;-85
2023/04/07 06:58:36;;;;;;;13.48;6.50;;;;;;;9.81;86.69;99726.94;5062462;28;20097;-84
2023/04/07 07:01:02;;;;;;;16.23;6.57;;;;;;;9.84;86.79;99725.59;5062557;28;20041;-84
2023/04/07 07:03:28;;;;;;;15.15;6.32;;;;;;;9.91;86.12;99730.81;5062592;28;20052;-87
2023/04/07 07:05:57;;;;;;;11.25;6.13;;;;;;;9.97;86.05;99737.09;5062164;28;20040;-81
2023/04/07 07:08:22;;;;;;;13.10;6.43;;;;;;;9.99;85.88;99737.66;5062527;28;20036;-84
2023/04/07 07:10:48;;;;;;;14.85;6.95;;;;;;;9.97;85.94;99737.09;5061712;28;20063;-83
2023/04/07 07:13:13;;;;;;;11.10;5.50;;;;;;;9.81;86.47;99742.44;5062640;28;20050;-86
2023/04/07 07:15:38;;;;;;;11.23;4.65;;;;;;;9.82;86.62;99746.81;5061263;28;20040;-83
2023/04/07 07:18:04;;;;;;;9.32;4.63;;;;;;;9.89;86.83;99747.41;5061403;28;20048;-82
2023/04/07 07:20:29;;;;;;;16.88;6.70;;;;;;;9.94;86.34;99749.38;5062435;28;20158;-81
2023/04/07 07:22:55;;;;;;;16.63;6.03;;;;;;;9.93;86.05;99748.53;5062024;28;20033;-82
2023/04/07 07:25:20;;;;;;;9.82;4.63;;;;;;;9.96;86.26;99746.38;5061620;28;20037;-81
2023/04/07 07:27:46;;;;;;;10.23;5.68;;;;;;;9.92;86.68;99746.09;5061952;28;20044;-84
2023/04/07 07:30:11;;;;;;;14.32;6.45;;;;;;;9.94;86.62;99754.81;5061856;28;20829;-80
2023/04/07 07:32:36;;;;;;;11.50;5.30;;;;;;;9.91;86.89;99758.88;5061200;28;20054;-84
2023/04/07 07:35:02;;;;;;;10.43;5.43;;;;;;;9.96;86.23;99754.53;5061306;28;20044;-81
2023/04/07 07:37:27;;;;;;;11.80;5.57;;;;;;;9.71;87.78;99759.53;5061302;28;20376;-82
2023/04/07 07:39:52;;;;;;;11.03;5.57;;;;;;;9.89;87.15;99763.75;5065073;28;20044;-82
2023/04/07 07:42:17;;;;;;;10.70;5.18;;;;;;;9.92;86.34;99763.25;5065185;28;20254;-84
2023/04/07 07:44:43;;;;;;;12.67;6.07;;;;;;;9.90;86.94;99776.31;5065350;28;20079;-85
2023/04/07 07:47:08;;;;;;;15.13;5.23;;;;;;;10.02;86.63;99778.03;5066515;28;20390;-85
2023/04/07 07:49:34;;;;;;;9.63;4.67;;;;;;;10.07;85.87;99779.97;5065548;28;20284;-83
2023/04/07 07:51:59;;;;;;;11.82;4.95;;;;;;;10.05;85.93;99780.22;5066593;28;20268;-84
2023/04/07 07:54:25;;;;;;;12.95;6.10;;;;;;;10.07;86.08;99778.03;5065882;28;20055;-84
2023/04/07 07:56:51;;;;;;;11.13;5.53;;;;;;;10.01;86.18;99782.63;5066414;28;20035;-82
2023/04/07 07:59:16;;;;;;;8.25;3.55;;;;;;;9.80;87.17;99789.84;5065392;28;20291;-81
2023/04/07 08:01:41;;;;;;;12.73;5.27;;;;;;;9.98;87.15;99793.25;5065717;28;20028;-83
2023/04/07 08:04:06;;;;;;;12.90;4.90;;;;;;;10.00;86.63;99791.91;5064586;28;20277;-83
2023/04/07 08:06:32;;;;;;;10.35;5.18;;;;;;;9.96;87.31;99792.69;5065714;28;20660;-86
2023/04/07 08:08:57;;;;;;;12.07;5.75;;;;;;;10.04;86.29;99800.38;5064843;28;20044;-86
2023/04/07 08:11:23;;;;;;;12.45;5.85;;;;;;;10.18;86.40;99789.03;5065674;28;20111;-85
2023/04/07 08:13:48;;;;;;;9.95;5.20;;;;;;;10.27;85.81;99801.09;5065100;28;20048;-86
2023/04/07 08:16:14;;;;;;;9.00;4.30;;;;;;;10.33;85.31;99807.41;5063778;28;20064;-85
2023/04/07 08:18:40;;;;;;;12.65;6.30;;;;;;;10.31;86.06;99801.38;5065124;28;20310;-85
2023/04/07 08:21:05;;;;;;;13.20;6.57;;;;;;;10.41;85.64;99808.81;5065071;28;20037;-84
2023/04/07 08:23:30;;;;;;;13.05;5.97;;;;;;;10.49;85.22;99802.91;5065357;28;20280;-87
2023/04/07 08:25:56;;;;;;;10.00;4.20;;;;;;;10.44;85.54;99811.00;5063931;28;20033;-84
2023/04/07 08:28:23;;;;;;;8.20;4.32;;;;;;;10.52;84.90;99807.81;5065431;28;20039;-86
2023/04/07 08:30:48;;;;;;;9.00;3.72;;;;;;;10.58;84.66;99801.31;5065690;28;20036;-85
2023/04/07 08:33:13;;;;;;;10.97;4.57;;;;;;;10.57;84.60;99810.59;5066352;28;20036;-85
2023/04/07 08:35:38;;;;;;;8.30;4.13;;;;;;;10.43;85.49;99814.81;5064685;28;20782;-85
2023/04/07 08:38:04;;;;;;;11.13;5.47;;;;;;;10.58;85.29;99805.94;5065015;28;20311;-85
2023/04/07 08:40:31;;;;;;;13.57;5.90;;;;;;;10.58;85.18;99812.22;5065130;28;20312;-86
2023/04/07 08:43:00;;;;;;;11.18;4.18;;;;;;;10.66;85.20;99810.09;5064813;28;20764;-86
2023/04/07 08:45:25;;;;;;;9.57;4.47;;;;;;;10.78;84.77;99816.13;5064753;28;20028;-85
2023/04/07 08:47:56;;;;;;;9.50;4.43;;;;;;;10.84;84.74;99820.53;5064747;28;20417;-85
2023/04/07 08:50:25;;;;;;;11.63;5.25;;;;;;;10.82;84.55;99819.97;5064814;28;20254;-85
2023/04/07 08:52:53;;;;;;;10.30;4.40;;;;;;;10.94;84.19;99818.94;5065152;28;20029;-84
2023/04/07 08:55:19;;;;;;;11.05;5.68;;;;;;;10.85;84.28;99821.34;5064726;28;20040;-85
2023/04/07 08:57:45;;;;;;;9.07;4.32;;;;;;;10.98;83.93;99826.31;5065000;28;20021;-85
2023/04/07 09:00:12;;;;;;;13.35;5.93;;;;;;;10.97;83.97;99824.69;5065078;28;20048;-85
2023/04/07 09:02:39;;;;;;;12.88;4.32;;;;;;;10.85;84.49;99832.25;5064406;28;20029;-85
2023/04/07 09:05:08;;;;;;;8.82;3.72;;;;;;;10.74;85.08;99831.38;5064193;28;20044;-85
2023/04/07 09:07:35;;;;;;;11.98;5.50;;;;;;;10.94;84.53;99832.59;5064129;28;20289;-87
2023/04/07 09:10:01;;;;;;;11.60;5.05;;;;;;;10.91;84.29;99836.66;5064561;28;20048;-86
2023/04/07 09:12:27;;;;;;;9.77;4.50;;;;;;;10.73;85.14;99838.75;5046914;28;20035;-87
2023/04/07 09:14:53;;;;;;;12.45;5.65;;;;;;;10.71;85.56;99831.91;5064256;28;20048;-86
2023/04/07 09:17:19;;;;;;;12.75;6.82;;;;;;;10.88;85.08;99839.09;5063422;28;20033;-86
2023/04/07 09:19:44;;;;;;;11.85;5.38;;;;;;;10.79;84.62;99839.59;5063660;28;20033;-85
2023/04/07 09:22:13;;;;;;;11.32;5.82;;;;;;;10.74;84.80;99845.00;5063666;28;20119;-85
2023/04/07 09:24:38;;;;;;;13.00;6.00;;;;;;;10.70;85.10;99835.75;5063547;28;20586;-83
2023/04/07 09:27:11;;;;;;;15.55;6.53;;;;;;;10.76;84.98;99842.84;5064252;28;20036;-85
2023/04/07 09:29:37;;;;;;;14.90;7.53;;;;;;;10.74;85.21;99836.81;5062806;28;20735;-84
2023/04/07 09:32:02;;;;;;;16.63;6.80;;;;;;;10.58;85.85;99850.38;5045968;28;20032;-86
2023/04/07 09:34:30;;;;;;;15.10;7.50;;;;;;;10.70;85.82;99841.19;5062933;28;20089;-85
2023/04/07 09:36:56;;;;;;;18.13;9.57;;;;;;;10.84;84.88;99845.06;5063645;28;20075;-85
2023/04/07 09:39:22;;;;;;;14.77;8.00;;;;;;;10.88;84.37;99841.81;5063309;28;20182;-86
2023/04/07 09:41:47;;;;;;;15.18;7.13;;;;;;;10.66;85.58;99840.06;5064138;28;20028;-86
2023/04/07 09:44:13;;;;;;;14.25;7.53;;;;;;;10.73;85.04;99846.09;5063426;28;20039;-85
2023/04/07 09:46:55;;;;;;;17.38;8.20;;;;;;;10.76;84.27;99842.03;5063533;28;20078;-85
2023/04/07 09:49:22;;;;;;;16.98;8.23;;;;;;;10.62;85.06;99846.03;5063333;28;20656;-85
2023/04/07 09:52:06;;;;;;;18.42;9.88;;;;;;;10.57;86.15;99848.75;5062705;28;20249;-85
2023/04/07 09:54:36;;;;;;;18.30;11.05;;;;;;;10.67;85.48;99847.16;5062562;28;20024;-84
2023/04/07 09:57:03;;;;;;;16.60;8.55;;;;;;;10.45;86.52;99858.97;5063282;28;20039;-85
2023/04/07 09:59:30;;;;;;;15.85;9.32;;;;;;;10.54;86.00;99860.16;5062847;28;20044;-85
2023/04/07 10:01:55;;;;;;;13.88;7.55;;;;;;;10.61;85.82;99854.50;5061719;28;20028;-85
2023/04/07 10:04:21;;;;;;;19.05;10.27;;;;;;;10.68;85.55;99865.16;5062314;28;20040;-85
2023/04/07 10:06:47;;;;;;;15.75;8.30;;;;;;;10.65;85.78;99862.94;5063002;28;20801;-85
2023/04/07 10:09:13;;;;;;;14.73;7.28;;;;;;;10.54;86.24;99868.34;5062566;28;20068;-85
2023/04/07 10:11:40;;;;;;;16.42;9.52;;;;;;;10.62;85.92;99861.56;5063235;28;20036;-85
2023/04/07 10:14:06;;;;;;;14.98;7.22;;;;;;;10.42;86.41;99864.94;5063143;28;20141;-85
2023/04/07 10:16:31;;;;;;;15.85;6.80;;;;;;;10.54;86.63;99871.06;5062904;28;20665;-85
2023/04/07 10:18:57;;;;;;;12.73;6.72;;;;;;;10.62;86.04;99867.84;5063267;28;20028;-83
2023/04/07 10:21:22;;;;;;;13.65;6.97;;;;;;;10.61;85.72;99879.03;5063291;28;20032;-88
2023/04/07 10:24:14;;;;;;;13.73;8.15;;;;;;;10.56;86.08;99874.34;5062648;28;20593;-86
2023/04/07 10:26:40;;;;;;;12.82;6.82;;;;;;;10.59;86.05;99879.28;5062751;28;20041;-85
2023/04/07 10:29:10;;;;;;;18.45;8.35;;;;;;;10.58;86.31;99871.34;5061734;28;20569;-88
2023/04/07 10:31:37;;;;;;;14.77;7.07;;;;;;;10.61;85.73;99890.75;5062790;28;20082;-87
2023/04/07 10:34:03;;;;;;;18.58;7.97;;;;;;;10.59;85.89;99879.28;5061870;28;20033;-87
2023/04/07 10:36:28;;;;;;;13.52;7.05;;;;;;;10.57;86.30;99878.72;5062307;28;20028;-88
2023/04/07 10:39:16;;;;;;;12.93;6.83;;;;;;;10.62;85.89;99888.84;5062527;28;20054;-87
2023/04/07 10:41:41;;;;;;;14.88;6.45;;;;;;;10.50;86.56;99889.03;5062503;28;20261;-88
2023/04/07 10:44:09;;;;;;;11.90;5.90;;;;;;;10.42;87.02;99884.03;5063222;28;20554;-88
2023/04/07 10:46:44;;;;;;;12.35;7.28;;;;;;;10.46;86.96;99890.59;5062961;28;20470;-87
2023/04/07 10:49:10;;;;;;;10.82;5.78;;;;;;;10.39;87.14;99890.84;5062723;28;20709;-88
2023/04/07 10:51:36;;;;;;;12.13;5.40;;;;;;;10.33;87.01;99892.66;5062840;28;20035;-87
2023/04/07 10:54:21;;;;;;;10.25;4.90;;;;;;;10.33;87.28;99889.94;5062895;28;20486;-87
2023/04/07 10:57:02;;;;;;;11.57;5.80;;;;;;;10.31;87.00;99894.03;5063078;28;20385;-88
2023/04/07 10:59:31;;;;;;;11.48;5.15;;;;;;;10.34;87.39;99907.13;5062863;28;20088;-88
2023/04/07 11:02:28;;;;;;;9.77;5.65;;;;;;;10.36;87.19;99897.63;5062527;28;20059;-87
2023/04/07 11:04:53;;;;;;;8.88;4.18;;;;;;;10.41;87.21;99902.31;5062415;28;20032;-87
2023/04/07 11:07:42;;;;;;;12.02;4.70;;;;;;;10.34;86.80;99893.50;5062975;28;20028;-88
2023/04/07 11:10:12;;;;;;;11.25;4.90;;;;;;;10.40;87.41;99900.63;5044308;28;20052;-88
2023/04/07 11:12:37;;;;;;;10.15;4.20;;;;;;;10.57;87.29;99906.00;5062269;28;20036;-88
2023/04/07 11:15:33;;;;;;;10.13;4.85;;;;;;;10.71;86.73;99902.81;5063051;28;20043;-87
2023/04/07 11:18:17;;;;;;;8.85;3.72;;;;;;;10.72;87.13;99899.81;5049616;28;20074;-89
2023/04/07 11:20:52;;;;;;;;;;;;;;;10.79;86.83;99909.66;5063667;28;20043;-87
2023/04/07 11:23:19;;;;;;;8.48;3.70;;;;;;;10.88;86.26;99910.00;5063461;28;20373;-88
2023/04/07 11:25:50;;;;;;;8.52;3.95;;;;;;;10.89;86.38;99914.38;5063074;28;20105;-88
2023/04/07 11:28:15;;;;;;;8.00;3.15;;;;;;;10.93;86.23;99912.75;5063417;28;20659;-89
2023/04/07 11:30:59;;;;;;;6.10;2.80;;;;;;;10.83;86.26;99911.63;5063456;28;20040;-87